Time,TemperatureF,DewpointF,PressureIn,WindDirection,WindDirectionDegrees,WindSpeedMPH,WindSpeedGustMPH,Humidity,HourlyPrecipIn,Conditions,Clouds,dailyrainin,SoftwareType,DateUTC
2013-03-23 00:00:00,26.3,20.7,30.04,ENE,78,0.0,1.0,79,0.00,,,0.00,VWS V14.01,2013-03-23 06:00:00,
2013-03-23 00:05:00,26.3,20.4,30.05,ESE,121,1.0,1.0,78,0.00,,,0.00,VWS V14.01,2013-03-23 06:05:00,
2013-03-23 00:10:00,26.2,20.0,30.05,ESE,113,2.0,3.0,77,0.00,,,0.00,VWS V14.01,2013-03-23 06:10:00,
2013-03-23 00:15:00,26.1,20.2,30.05,SSE,153,1.0,3.0,78,0.00,,,0.00,VWS V14.01,2013-03-23 06:15:00,
2013-03-23 00:20:00,25.9,20.3,30.05,South,191,3.0,3.0,79,0.00,,,0.00,VWS V14.01,2013-03-23 06:20:00,
2013-03-23 00:25:00,25.8,20.5,30.05,SE,139,3.0,3.0,80,0.00,,,0.00,VWS V14.01,2013-03-23 06:25:00,
2013-03-23 00:30:00,25.7,20.7,30.05,SSE,152,1.0,2.0,81,0.00,,,0.00,VWS V14.01,2013-03-23 06:30:00,
2013-03-23 00:35:00,25.6,20.6,30.06,SSE,148,1.0,2.0,81,0.00,,,0.00,VWS V14.01,2013-03-23 06:35:00,
2013-03-23 00:40:00,25.5,20.8,30.06,SSE,153,1.0,1.0,82,0.00,,,0.00,VWS V14.01,2013-03-23 06:40:00,
2013-03-23 00:45:00,25.3,20.9,30.06,ESE,120,1.0,1.0,83,0.00,,,0.00,VWS V14.01,2013-03-23 06:45:00,
2013-03-23 00:50:00,25.0,20.6,30.06,ESE,112,2.0,4.0,83,0.00,,,0.00,VWS V14.01,2013-03-23 06:50:00,
2013-03-23 00:55:00,24.7,20.3,30.06,ESE,123,5.0,5.0,83,0.00,,,0.00,VWS V14.01,2013-03-23 06:55:00,
2013-03-23 01:00:00,24.4,20.0,30.06,SE,129,1.0,2.0,83,0.00,,,0.00,VWS V14.01,2013-03-23 07:00:00,
2013-03-23 01:05:00,24.0,19.6,30.06,SE,130,2.0,2.0,83,0.00,,,0.00,VWS V14.01,2013-03-23 07:05:00,
2013-03-23 01:10:00,23.8,19.4,30.06,SE,146,3.0,3.0,83,0.00,,,0.00,VWS V14.01,2013-03-23 07:10:00,
2013-03-23 01:15:00,23.7,19.3,30.06,South,177,2.0,5.0,83,0.00,,,0.00,VWS V14.01,2013-03-23 07:15:00,
2013-03-23 01:20:00,23.6,19.2,30.06,South,173,3.0,5.0,83,0.00,,,0.00,VWS V14.01,2013-03-23 07:20:00,
2013-03-23 01:21:00,23.6,19.2,30.06,South,169,2.0,3.0,83,0.00,,,0.00,VWS V14.01,2013-03-23 07:21:00,
2013-03-23 01:25:00,23.4,19.3,30.07,SSW,203,2.0,3.0,84,0.00,,,0.00,VWS V14.01,2013-03-23 07:25:00,
2013-03-23 01:26:00,23.4,19.3,30.07,SSW,202,1.0,2.0,84,0.00,,,0.00,VWS V14.01,2013-03-23 07:26:00,
2013-03-23 01:30:00,23.1,19.0,30.07,SW,216,2.0,2.0,84,0.00,,,0.00,VWS V14.01,2013-03-23 07:30:00,
2013-03-23 01:31:00,23.0,18.9,30.07,SW,217,1.0,2.0,84,0.00,,,0.00,VWS V14.01,2013-03-23 07:31:00,
2013-03-23 01:35:00,22.9,19.1,30.07,SSW,211,2.0,3.0,85,0.00,,,0.00,VWS V14.01,2013-03-23 07:35:00,
2013-03-23 01:36:00,22.8,19.0,30.07,SW,228,1.0,2.0,85,0.00,,,0.00,VWS V14.01,2013-03-23 07:36:00,
2013-03-23 01:40:00,22.8,19.0,30.07,SSW,200,1.0,2.0,85,0.00,,,0.00,VWS V14.01,2013-03-23 07:40:00,
2013-03-23 01:41:00,22.8,19.0,30.07,SSW,205,1.0,2.0,85,0.00,,,0.00,VWS V14.01,2013-03-23 07:41:00,
2013-03-23 01:45:00,22.8,19.0,30.07,SSW,201,0.0,2.0,85,0.00,,,0.00,VWS V14.01,2013-03-23 07:45:00,
2013-03-23 01:46:00,22.8,19.0,30.07,SSW,207,1.0,2.0,85,0.00,,,0.00,VWS V14.01,2013-03-23 07:46:00,
2013-03-23 01:50:00,22.8,19.0,30.07,South,173,2.0,2.0,85,0.00,,,0.00,VWS V14.01,2013-03-23 07:50:00,
2013-03-23 01:51:00,22.8,19.0,30.07,South,170,2.0,2.0,85,0.00,,,0.00,VWS V14.01,2013-03-23 07:51:00,
2013-03-23 01:55:00,22.8,19.0,30.07,South,170,0.0,2.0,85,0.00,,,0.00,VWS V14.01,2013-03-23 07:55:00,
2013-03-23 01:56:00,22.8,19.0,30.07,South,170,0.0,0.0,85,0.00,,,0.00,VWS V14.01,2013-03-23 07:56:00,
2013-03-23 02:00:00,22.7,18.9,30.07,South,170,0.0,0.0,85,0.00,,,0.00,VWS V14.01,2013-03-23 08:00:00,
2013-03-23 02:01:00,22.7,18.9,30.07,South,170,0.0,0.0,85,0.00,,,0.00,VWS V14.01,2013-03-23 08:01:00,
2013-03-23 02:05:00,22.6,18.8,30.07,South,170,0.0,0.0,85,0.00,,,0.00,VWS V14.01,2013-03-23 08:05:00,
2013-03-23 02:06:00,22.6,18.8,30.07,South,170,0.0,0.0,85,0.00,,,0.00,VWS V14.01,2013-03-23 08:06:00,
2013-03-23 02:10:00,22.5,19.0,30.07,South,170,0.0,0.0,86,0.00,,,0.00,VWS V14.01,2013-03-23 08:10:00,
2013-03-23 02:11:00,22.4,18.9,30.07,WSW,252,1.0,1.0,86,0.00,,,0.00,VWS V14.01,2013-03-23 08:11:00,
2013-03-23 02:15:00,22.4,18.9,30.08,WSW,252,1.0,1.0,86,0.00,,,0.00,VWS V14.01,2013-03-23 08:15:00,
2013-03-23 02:16:00,22.3,18.8,30.08,WSW,252,1.0,1.0,86,0.00,,,0.00,VWS V14.01,2013-03-23 08:16:00,
2013-03-23 02:20:00,22.1,18.6,30.08,WSW,252,0.0,1.0,86,0.00,,,0.00,VWS V14.01,2013-03-23 08:20:00,
2013-03-23 02:21:00,22.1,18.6,30.08,WSW,252,0.0,0.0,86,0.00,,,0.00,VWS V14.01,2013-03-23 08:21:00,
2013-03-23 02:25:00,22.1,18.8,30.08,WSW,252,0.0,0.0,87,0.00,,,0.00,VWS V14.01,2013-03-23 08:25:00,
2013-03-23 02:26:00,22.0,18.7,30.08,WSW,252,0.0,0.0,87,0.00,,,0.00,VWS V14.01,2013-03-23 08:26:00,
2013-03-23 02:30:00,21.9,18.6,30.08,WSW,252,0.0,0.0,87,0.00,,,0.00,VWS V14.01,2013-03-23 08:30:00,
2013-03-23 02:31:00,21.7,18.4,30.08,WSW,252,0.0,0.0,87,0.00,,,0.00,VWS V14.01,2013-03-23 08:31:00,
2013-03-23 02:35:00,21.5,18.2,30.08,WSW,252,0.0,0.0,87,0.00,,,0.00,VWS V14.01,2013-03-23 08:35:00,
2013-03-23 02:36:00,21.5,18.2,30.08,WSW,252,0.0,0.0,87,0.00,,,0.00,VWS V14.01,2013-03-23 08:36:00,
2013-03-23 02:40:00,21.5,18.5,30.08,WSW,252,0.0,0.0,88,0.00,,,0.00,VWS V14.01,2013-03-23 08:40:00,
2013-03-23 02:41:00,21.6,18.6,30.08,WSW,252,0.0,0.0,88,0.00,,,0.00,VWS V14.01,2013-03-23 08:41:00,
2013-03-23 02:45:00,21.7,18.7,30.08,WSW,252,0.0,0.0,88,0.00,,,0.00,VWS V14.01,2013-03-23 08:45:00,
2013-03-23 02:46:00,21.7,18.7,30.08,WSW,252,0.0,0.0,88,0.00,,,0.00,VWS V14.01,2013-03-23 08:46:00,
2013-03-23 02:50:00,21.3,17.8,30.09,WSW,252,0.0,0.0,86,0.00,,,0.00,VWS V14.01,2013-03-23 08:50:00,
2013-03-23 02:51:00,21.1,17.8,30.09,WSW,252,0.0,0.0,87,0.00,,,0.00,VWS V14.01,2013-03-23 08:51:00,
2013-03-23 02:55:00,20.8,17.5,30.09,WSW,252,0.0,0.0,87,0.00,,,0.00,VWS V14.01,2013-03-23 08:55:00,
2013-03-23 02:56:00,20.6,17.6,30.09,WSW,252,0.0,0.0,88,0.00,,,0.00,VWS V14.01,2013-03-23 08:56:00,
2013-03-23 03:00:00,20.5,17.5,30.09,WSW,252,0.0,0.0,88,0.00,,,0.00,VWS V14.01,2013-03-23 09:00:00,
2013-03-23 03:01:00,20.5,17.5,30.09,WSW,252,0.0,0.0,88,0.00,,,0.00,VWS V14.01,2013-03-23 09:01:00,
2013-03-23 03:05:00,20.4,17.7,30.09,WSW,252,0.0,0.0,89,0.00,,,0.00,VWS V14.01,2013-03-23 09:05:00,
2013-03-23 03:06:00,20.3,17.8,30.09,WSW,251,0.0,0.0,90,0.00,,,0.00,VWS V14.01,2013-03-23 09:06:00,
2013-03-23 03:10:00,20.1,17.6,30.09,WSW,254,0.0,0.0,90,0.00,,,0.00,VWS V14.01,2013-03-23 09:10:00,
2013-03-23 03:12:00,20.0,17.5,30.09,West,263,0.0,0.0,90,0.00,,,0.00,VWS V14.01,2013-03-23 09:12:00,
2013-03-23 03:15:00,19.9,17.7,30.09,West,262,0.0,0.0,91,0.00,,,0.00,VWS V14.01,2013-03-23 09:15:00,
2013-03-23 03:16:00,19.9,17.7,30.09,West,263,0.0,0.0,91,0.00,,,0.00,VWS V14.01,2013-03-23 09:16:00,
2013-03-23 03:20:00,19.6,17.1,30.09,West,260,1.0,2.0,90,0.00,,,0.00,VWS V14.01,2013-03-23 09:20:00,
2013-03-23 03:22:00,19.4,17.0,30.09,West,269,2.0,2.0,90,0.00,,,0.00,VWS V14.01,2013-03-23 09:22:00,
2013-03-23 03:25:00,19.3,17.1,30.09,West,273,2.0,2.0,91,0.00,,,0.00,VWS V14.01,2013-03-23 09:25:00,
2013-03-23 03:27:00,19.3,17.1,30.09,West,267,2.0,3.0,91,0.00,,,0.00,VWS V14.01,2013-03-23 09:27:00,
2013-03-23 03:30:00,19.0,16.8,30.09,WSW,257,1.0,3.0,91,0.00,,,0.00,VWS V14.01,2013-03-23 09:30:00,
2013-03-23 03:32:00,19.1,16.9,30.09,WSW,257,0.0,1.0,91,0.00,,,0.00,VWS V14.01,2013-03-23 09:32:00,
2013-03-23 03:35:00,19.1,16.9,30.09,WSW,257,0.0,1.0,91,0.00,,,0.00,VWS V14.01,2013-03-23 09:35:00,
2013-03-23 03:37:00,19.0,16.8,30.09,WSW,248,1.0,2.0,91,0.00,,,0.00,VWS V14.01,2013-03-23 09:37:00,
2013-03-23 03:40:00,18.8,16.6,30.09,WSW,242,2.0,2.0,91,0.00,,,0.00,VWS V14.01,2013-03-23 09:40:00,
2013-03-23 03:42:00,18.7,16.5,30.09,WSW,242,1.0,2.0,91,0.00,,,0.00,VWS V14.01,2013-03-23 09:42:00,
2013-03-23 03:45:00,18.8,16.6,30.09,WSW,238,1.0,2.0,91,0.00,,,0.00,VWS V14.01,2013-03-23 09:45:00,
2013-03-23 03:47:00,18.7,16.5,30.09,WSW,252,1.0,2.0,91,0.00,,,0.00,VWS V14.01,2013-03-23 09:47:00,
2013-03-23 03:50:00,18.6,16.4,30.09,West,261,2.0,2.0,91,0.00,,,0.00,VWS V14.01,2013-03-23 09:50:00,
2013-03-23 03:52:00,18.5,16.3,30.09,WSW,252,2.0,3.0,91,0.00,,,0.00,VWS V14.01,2013-03-23 09:52:00,
2013-03-23 03:55:00,18.8,16.6,30.09,WSW,242,1.0,3.0,91,0.00,,,0.00,VWS V14.01,2013-03-23 09:55:00,
2013-03-23 03:57:00,18.9,16.7,30.09,WSW,256,1.0,2.0,91,0.00,,,0.00,VWS V14.01,2013-03-23 09:57:00,
2013-03-23 04:00:00,18.9,16.7,30.09,WSW,249,0.0,2.0,91,0.00,,,0.00,VWS V14.01,2013-03-23 10:00:00,
2013-03-23 04:02:00,18.9,16.7,30.09,WSW,249,0.0,0.0,91,0.00,,,0.00,VWS V14.01,2013-03-23 10:02:00,
2013-03-23 04:05:00,18.8,16.4,30.09,WSW,252,1.0,1.0,90,0.00,,,0.00,VWS V14.01,2013-03-23 10:05:00,
2013-03-23 04:07:00,18.8,16.4,30.10,WSW,252,1.0,1.0,90,0.00,,,0.00,VWS V14.01,2013-03-23 10:07:00,
2013-03-23 04:10:00,18.7,16.3,30.09,WSW,254,1.0,2.0,90,0.00,,,0.00,VWS V14.01,2013-03-23 10:10:00,
2013-03-23 04:12:00,18.5,15.8,30.10,WSW,255,1.0,1.0,89,0.00,,,0.00,VWS V14.01,2013-03-23 10:12:00,
2013-03-23 04:15:00,18.4,15.7,30.09,WSW,255,1.0,1.0,89,0.00,,,0.00,VWS V14.01,2013-03-23 10:15:00,
2013-03-23 04:17:00,18.4,15.7,30.09,WSW,255,0.0,1.0,89,0.00,,,0.00,VWS V14.01,2013-03-23 10:17:00,
2013-03-23 04:20:00,18.4,15.7,30.09,WSW,255,0.0,1.0,89,0.00,,,0.00,VWS V14.01,2013-03-23 10:20:00,
2013-03-23 04:22:00,18.3,15.6,30.09,WSW,255,0.0,0.0,89,0.00,,,0.00,VWS V14.01,2013-03-23 10:22:00,
2013-03-23 04:25:00,18.3,15.6,30.09,WSW,242,0.0,0.0,89,0.00,,,0.00,VWS V14.01,2013-03-23 10:25:00,
2013-03-23 04:27:00,18.3,15.6,30.09,WSW,239,1.0,2.0,89,0.00,,,0.00,VWS V14.01,2013-03-23 10:27:00,
2013-03-23 04:30:00,18.3,15.6,30.09,WSW,245,1.0,2.0,89,0.00,,,0.00,VWS V14.01,2013-03-23 10:30:00,
2013-03-23 04:32:00,18.3,15.6,30.10,WSW,239,0.0,2.0,89,0.00,,,0.00,VWS V14.01,2013-03-23 10:32:00,
2013-03-23 04:35:00,18.1,15.1,30.10,WSW,255,1.0,2.0,88,0.00,,,0.00,VWS V14.01,2013-03-23 10:35:00,
2013-03-23 04:37:00,17.9,14.9,30.10,WSW,255,1.0,2.0,88,0.00,,,0.00,VWS V14.01,2013-03-23 10:37:00,
2013-03-23 04:40:00,17.7,14.5,30.10,West,259,2.0,2.0,87,0.00,,,0.00,VWS V14.01,2013-03-23 10:40:00,
2013-03-23 04:42:00,17.4,14.2,30.10,WSW,257,2.0,3.0,87,0.00,,,0.00,VWS V14.01,2013-03-23 10:42:00,
2013-03-23 04:45:00,17.2,14.0,30.10,West,262,1.0,3.0,87,0.00,,,0.00,VWS V14.01,2013-03-23 10:45:00,
2013-03-23 04:47:00,17.0,13.8,30.10,West,260,1.0,2.0,87,0.00,,,0.00,VWS V14.01,2013-03-23 10:47:00,
2013-03-23 04:50:00,16.8,13.9,30.10,West,260,1.0,2.0,88,0.00,,,0.00,VWS V14.01,2013-03-23 10:50:00,
2013-03-23 04:52:00,16.7,13.8,30.10,WSW,251,1.0,2.0,88,0.00,,,0.00,VWS V14.01,2013-03-23 10:52:00,
2013-03-23 04:55:00,16.6,13.7,30.10,West,260,1.0,2.0,88,0.00,,,0.00,VWS V14.01,2013-03-23 10:55:00,
2013-03-23 04:58:00,16.4,13.5,30.10,West,262,2.0,2.0,88,0.00,,,0.00,VWS V14.01,2013-03-23 10:58:00,
2013-03-23 05:00:00,16.3,13.4,30.10,WSW,255,1.0,2.0,88,0.00,,,0.00,VWS V14.01,2013-03-23 11:00:00,
2013-03-23 05:03:00,16.4,13.5,30.10,West,261,1.0,2.0,88,0.00,,,0.00,VWS V14.01,2013-03-23 11:03:00,
2013-03-23 05:05:00,16.4,13.7,30.10,West,262,1.0,2.0,89,0.00,,,0.00,VWS V14.01,2013-03-23 11:05:00,
2013-03-23 05:08:00,16.6,13.9,30.10,West,262,1.0,1.0,89,0.00,,,0.00,VWS V14.01,2013-03-23 11:08:00,
2013-03-23 05:10:00,16.6,13.9,30.10,West,271,1.0,2.0,89,0.00,,,0.00,VWS V14.01,2013-03-23 11:10:00,
2013-03-23 05:13:00,16.8,14.1,30.10,West,273,1.0,2.0,89,0.00,,,0.00,VWS V14.01,2013-03-23 11:13:00,
2013-03-23 05:15:00,16.8,14.1,30.10,West,268,1.0,2.0,89,0.00,,,0.00,VWS V14.01,2013-03-23 11:15:00,
2013-03-23 05:18:00,16.7,13.8,30.11,West,273,2.0,2.0,88,0.00,,,0.00,VWS V14.01,2013-03-23 11:18:00,
2013-03-23 05:20:00,16.7,13.8,30.10,West,267,1.0,2.0,88,0.00,,,0.00,VWS V14.01,2013-03-23 11:20:00,
2013-03-23 05:23:00,16.8,14.1,30.11,West,262,2.0,2.0,89,0.00,,,0.00,VWS V14.01,2013-03-23 11:23:00,
2013-03-23 05:25:00,16.8,13.9,30.11,West,262,1.0,2.0,88,0.00,,,0.00,VWS V14.01,2013-03-23 11:25:00,
2013-03-23 05:28:00,16.5,13.3,30.10,West,262,1.0,2.0,87,0.00,,,0.00,VWS V14.01,2013-03-23 11:28:00,
2013-03-23 05:30:00,16.4,13.5,30.10,WSW,255,1.0,2.0,88,0.00,,,0.00,VWS V14.01,2013-03-23 11:30:00,
2013-03-23 05:33:00,16.5,13.6,30.10,SW,231,1.0,2.0,88,0.00,,,0.00,VWS V14.01,2013-03-23 11:33:00,
2013-03-23 05:35:00,16.7,14.0,30.10,SW,231,0.0,2.0,89,0.00,,,0.00,VWS V14.01,2013-03-23 11:35:00,
2013-03-23 05:38:00,16.9,14.0,30.10,WSW,255,1.0,1.0,88,0.00,,,0.00,VWS V14.01,2013-03-23 11:38:00,
2013-03-23 05:40:00,17.0,14.1,30.10,WSW,246,0.0,2.0,88,0.00,,,0.00,VWS V14.01,2013-03-23 11:40:00,
2013-03-23 05:43:00,16.8,13.6,30.11,West,267,1.0,2.0,87,0.00,,,0.00,VWS V14.01,2013-03-23 11:43:00,
2013-03-23 05:45:00,16.6,13.4,30.11,West,259,2.0,2.0,87,0.00,,,0.00,VWS V14.01,2013-03-23 11:45:00,
2013-03-23 05:48:00,16.2,13.0,30.11,WSW,254,1.0,2.0,87,0.00,,,0.00,VWS V14.01,2013-03-23 11:48:00,
2013-03-23 05:50:00,16.0,12.8,30.11,West,264,2.0,2.0,87,0.00,,,0.00,VWS V14.01,2013-03-23 11:50:00,
2013-03-23 05:53:00,15.9,12.7,30.11,WSW,252,1.0,3.0,87,0.00,,,0.00,VWS V14.01,2013-03-23 11:53:00,
2013-03-23 05:55:00,15.8,12.6,30.11,WSW,252,1.0,3.0,87,0.00,,,0.00,VWS V14.01,2013-03-23 11:55:00,
2013-03-23 05:58:00,15.6,12.4,30.11,WSW,252,1.0,1.0,87,0.00,,,0.00,VWS V14.01,2013-03-23 11:58:00,
2013-03-23 06:00:00,15.5,12.3,30.11,WSW,252,0.0,1.0,87,0.00,,,0.00,VWS V14.01,2013-03-23 12:00:00,
2013-03-23 06:03:00,15.4,12.5,30.11,WSW,251,0.0,1.0,88,0.00,,,0.00,VWS V14.01,2013-03-23 12:03:00,
2013-03-23 06:05:00,15.4,12.5,30.11,WSW,252,1.0,1.0,88,0.00,,,0.00,VWS V14.01,2013-03-23 12:05:00,
2013-03-23 06:08:00,15.3,12.4,30.11,WSW,251,1.0,2.0,88,0.00,,,0.00,VWS V14.01,2013-03-23 12:08:00,
2013-03-23 06:10:00,15.3,12.4,30.11,WSW,251,1.0,2.0,88,0.00,,,0.00,VWS V14.01,2013-03-23 12:10:00,
2013-03-23 06:13:00,15.2,12.3,30.11,WSW,257,3.0,3.0,88,0.00,,,0.00,VWS V14.01,2013-03-23 12:13:00,
2013-03-23 06:15:00,15.1,11.9,30.11,West,263,2.0,3.0,87,0.00,,,0.00,VWS V14.01,2013-03-23 12:15:00,
2013-03-23 06:18:00,14.7,11.5,30.12,WSW,250,2.0,3.0,87,0.00,,,0.00,VWS V14.01,2013-03-23 12:18:00,
2013-03-23 06:20:00,14.7,11.5,30.12,WSW,246,1.0,3.0,87,0.00,,,0.00,VWS V14.01,2013-03-23 12:20:00,
2013-03-23 06:23:00,14.8,12.1,30.12,West,266,2.0,3.0,89,0.00,,,0.00,VWS V14.01,2013-03-23 12:23:00,
2013-03-23 06:25:00,14.9,12.2,30.12,West,262,2.0,3.0,89,0.00,,,0.00,VWS V14.01,2013-03-23 12:25:00,
2013-03-23 06:28:00,14.9,11.7,30.12,West,259,2.0,2.0,87,0.00,,,0.00,VWS V14.01,2013-03-23 12:28:00,
2013-03-23 06:30:00,14.7,11.5,30.12,West,261,2.0,2.0,87,0.00,,,0.00,VWS V14.01,2013-03-23 12:30:00,
2013-03-23 06:33:00,14.5,11.3,30.12,West,270,2.0,2.0,87,0.00,,,0.00,VWS V14.01,2013-03-23 12:33:00,
2013-03-23 06:35:00,14.6,11.7,30.12,WNW,282,1.0,2.0,88,0.00,,,0.00,VWS V14.01,2013-03-23 12:35:00,
2013-03-23 06:38:00,15.1,12.4,30.12,West,259,1.0,2.0,89,0.00,,,0.00,VWS V14.01,2013-03-23 12:38:00,
2013-03-23 06:40:00,15.3,12.6,30.13,West,261,1.0,2.0,89,0.00,,,0.00,VWS V14.01,2013-03-23 12:40:00,
2013-03-23 06:43:00,16.0,13.6,30.13,West,270,1.0,1.0,90,0.00,,,0.00,VWS V14.01,2013-03-23 12:43:00,
2013-03-23 06:45:00,16.3,13.9,30.13,West,270,0.0,1.0,90,0.00,,,0.00,VWS V14.01,2013-03-23 12:45:00,
2013-03-23 06:48:00,16.8,14.1,30.13,West,269,0.0,0.0,89,0.00,,,0.00,VWS V14.01,2013-03-23 12:48:00,
2013-03-23 06:50:00,16.8,13.9,30.13,West,270,0.0,0.0,88,0.00,,,0.00,VWS V14.01,2013-03-23 12:50:00,
2013-03-23 06:53:00,16.8,13.9,30.13,West,269,0.0,0.0,88,0.00,,,0.00,VWS V14.01,2013-03-23 12:53:00,
2013-03-23 06:55:00,16.8,13.9,30.13,West,270,0.0,0.0,88,0.00,,,0.00,VWS V14.01,2013-03-23 12:55:00,
2013-03-23 06:58:00,16.7,13.8,30.13,North,359,2.0,2.0,88,0.00,,,0.00,VWS V14.01,2013-03-23 12:58:00,
2013-03-23 07:00:00,16.8,13.9,30.13,NNE,12,1.0,2.0,88,0.00,,,0.00,VWS V14.01,2013-03-23 13:00:00,
2013-03-23 07:03:00,17.3,14.6,30.13,NE,34,1.0,3.0,89,0.00,,,0.00,VWS V14.01,2013-03-23 13:03:00,
2013-03-23 07:05:00,17.5,15.1,30.13,NE,36,2.0,3.0,90,0.00,,,0.00,VWS V14.01,2013-03-23 13:05:00,
2013-03-23 07:08:00,18.1,15.4,30.13,NE,37,2.0,3.0,89,0.00,,,0.00,VWS V14.01,2013-03-23 13:08:00,
2013-03-23 07:10:00,18.3,15.6,30.14,NNE,22,3.0,4.0,89,0.00,,,0.00,VWS V14.01,2013-03-23 13:10:00,
2013-03-23 07:13:00,19.0,15.8,30.14,North,359,6.0,6.0,87,0.00,,,0.00,VWS V14.01,2013-03-23 13:13:00,
2013-03-23 07:15:00,19.2,15.7,30.14,NNW,340,3.0,6.0,86,0.00,,,0.00,VWS V14.01,2013-03-23 13:15:00,
2013-03-23 07:18:00,19.7,15.7,30.14,NNW,338,4.0,5.0,84,0.00,,,0.00,VWS V14.01,2013-03-23 13:18:00,
2013-03-23 07:20:00,19.7,15.4,30.14,NNW,333,3.0,5.0,83,0.00,,,0.00,VWS V14.01,2013-03-23 13:20:00,
2013-03-23 07:23:00,20.0,15.7,30.14,North,1,4.0,4.0,83,0.00,,,0.00,VWS V14.01,2013-03-23 13:23:00,
2013-03-23 07:25:00,20.1,15.8,30.14,North,360,3.0,4.0,83,0.00,,,0.00,VWS V14.01,2013-03-23 13:25:00,
2013-03-23 07:28:00,20.1,15.5,30.14,North,9,3.0,5.0,82,0.00,,,0.00,VWS V14.01,2013-03-23 13:28:00,
2013-03-23 07:30:00,20.1,15.5,30.14,North,351,4.0,5.0,82,0.00,,,0.00,VWS V14.01,2013-03-23 13:30:00,
2013-03-23 07:33:00,20.1,15.2,30.14,NNW,344,5.0,6.0,81,0.00,,,0.00,VWS V14.01,2013-03-23 13:33:00,
2013-03-23 07:35:00,20.1,15.2,30.14,North,349,4.0,6.0,81,0.00,,,0.00,VWS V14.01,2013-03-23 13:35:00,
2013-03-23 07:38:00,20.2,15.3,30.14,NNW,334,4.0,6.0,81,0.00,,,0.00,VWS V14.01,2013-03-23 13:38:00,
2013-03-23 07:40:00,20.2,15.3,30.14,NW,322,3.0,6.0,81,0.00,,,0.00,VWS V14.01,2013-03-23 13:40:00,
2013-03-23 07:43:00,20.3,15.1,30.14,NNW,327,5.0,6.0,80,0.00,,,0.00,VWS V14.01,2013-03-23 13:43:00,
2013-03-23 07:45:00,20.4,14.9,30.14,NW,318,6.0,7.0,79,0.00,,,0.00,VWS V14.01,2013-03-23 13:45:00,
2013-03-23 07:48:00,20.4,14.9,30.14,NW,314,3.0,7.0,79,0.00,,,0.00,VWS V14.01,2013-03-23 13:48:00,
2013-03-23 07:50:00,20.5,15.0,30.14,NW,321,3.0,7.0,79,0.00,,,0.00,VWS V14.01,2013-03-23 13:50:00,
2013-03-23 07:53:00,20.4,15.2,30.14,NW,326,6.0,6.0,80,0.00,,,0.00,VWS V14.01,2013-03-23 13:53:00,
2013-03-23 07:55:00,20.4,14.9,30.14,NW,321,5.0,6.0,79,0.00,,,0.00,VWS V14.01,2013-03-23 13:55:00,
2013-03-23 07:59:00,20.3,15.1,30.14,NW,308,2.0,5.0,80,0.00,,,0.00,VWS V14.01,2013-03-23 13:59:00,
2013-03-23 08:00:00,20.3,15.1,30.14,NW,326,2.0,5.0,80,0.00,,,0.00,VWS V14.01,2013-03-23 14:00:00,
2013-03-23 08:04:00,20.2,15.0,30.14,NW,304,4.0,5.0,80,0.00,,,0.00,VWS V14.01,2013-03-23 14:04:00,
2013-03-23 08:05:00,20.3,15.1,30.14,NW,316,4.0,5.0,80,0.00,,,0.00,VWS V14.01,2013-03-23 14:05:00,
2013-03-23 08:09:00,20.2,15.0,30.14,NW,308,2.0,5.0,80,0.00,,,0.00,VWS V14.01,2013-03-23 14:09:00,
2013-03-23 08:10:00,20.2,15.0,30.14,NW,306,2.0,5.0,80,0.00,,,0.00,VWS V14.01,2013-03-23 14:10:00,
2013-03-23 08:14:00,20.1,14.9,30.14,NW,305,2.0,3.0,80,0.00,,,0.00,VWS V14.01,2013-03-23 14:14:00,
2013-03-23 08:15:00,20.1,14.9,30.14,NW,304,2.0,3.0,80,0.00,,,0.00,VWS V14.01,2013-03-23 14:15:00,
2013-03-23 08:19:00,20.1,14.6,30.14,NW,306,1.0,3.0,79,0.00,,,0.00,VWS V14.01,2013-03-23 14:19:00,
2013-03-23 08:20:00,20.1,14.6,30.14,NW,307,1.0,3.0,79,0.00,,,0.00,VWS V14.01,2013-03-23 14:20:00,
2013-03-23 08:24:00,19.6,14.4,30.14,WSW,246,0.0,2.0,80,0.00,,,0.00,VWS V14.01,2013-03-23 14:24:00,
2013-03-23 08:25:00,19.4,14.2,30.14,WSW,246,0.0,2.0,80,0.00,,,0.00,VWS V14.01,2013-03-23 14:25:00,
2013-03-23 08:29:00,19.2,14.3,30.14,WSW,246,0.0,0.0,81,0.00,,,0.00,VWS V14.01,2013-03-23 14:29:00,
2013-03-23 08:30:00,19.2,14.6,30.14,WSW,245,0.0,0.0,82,0.00,,,0.00,VWS V14.01,2013-03-23 14:30:00,
2013-03-23 08:34:00,19.6,15.0,30.14,NW,306,3.0,5.0,82,0.00,,,0.00,VWS V14.01,2013-03-23 14:34:00,
2013-03-23 08:35:00,19.8,14.9,30.14,WNW,301,2.0,5.0,81,0.00,,,0.00,VWS V14.01,2013-03-23 14:35:00,
2013-03-23 08:39:00,20.3,15.4,30.14,West,262,2.0,2.0,81,0.00,,,0.00,VWS V14.01,2013-03-23 14:39:00,
2013-03-23 08:40:00,20.2,15.6,30.14,WNW,287,1.0,2.0,82,0.00,,,0.00,VWS V14.01,2013-03-23 14:40:00,
2013-03-23 08:44:00,20.4,15.8,30.14,West,263,1.0,3.0,82,0.00,,,0.00,VWS V14.01,2013-03-23 14:44:00,
2013-03-23 08:45:00,20.4,15.8,30.14,WSW,255,2.0,3.0,82,0.00,,,0.00,VWS V14.01,2013-03-23 14:45:00,
2013-03-23 08:49:00,20.2,15.6,30.15,West,271,1.0,2.0,82,0.00,,,0.00,VWS V14.01,2013-03-23 14:49:00,
2013-03-23 08:50:00,20.2,15.6,30.15,WNW,302,3.0,4.0,82,0.00,,,0.00,VWS V14.01,2013-03-23 14:50:00,
2013-03-23 08:54:00,20.3,15.1,30.15,West,276,3.0,5.0,80,0.00,,,0.00,VWS V14.01,2013-03-23 14:54:00,
2013-03-23 08:55:00,20.4,15.2,30.15,West,269,2.0,5.0,80,0.00,,,0.00,VWS V14.01,2013-03-23 14:55:00,
2013-03-23 08:59:00,20.6,15.4,30.15,WNW,297,1.0,4.0,80,0.00,,,0.00,VWS V14.01,2013-03-23 14:59:00,
2013-03-23 09:00:00,20.7,15.5,30.15,WNW,301,2.0,4.0,80,0.00,,,0.00,VWS V14.01,2013-03-23 15:00:00,
2013-03-23 09:04:00,20.9,15.4,30.15,WNW,302,5.0,6.0,79,0.00,,,0.00,VWS V14.01,2013-03-23 15:04:00,
2013-03-23 09:05:00,21.0,15.5,30.15,NW,304,3.0,6.0,79,0.00,,,0.00,VWS V14.01,2013-03-23 15:05:00,
2013-03-23 09:09:00,21.1,15.3,30.15,NW,325,4.0,6.0,78,0.00,,,0.00,VWS V14.01,2013-03-23 15:09:00,
2013-03-23 09:10:00,21.1,15.3,30.15,WNW,302,4.0,6.0,78,0.00,,,0.00,VWS V14.01,2013-03-23 15:10:00,
2013-03-23 09:14:00,21.2,15.1,30.15,WNW,302,2.0,6.0,77,0.00,,,0.00,VWS V14.01,2013-03-23 15:14:00,
2013-03-23 09:15:00,21.2,15.1,30.15,WNW,293,3.0,6.0,77,0.00,,,0.00,VWS V14.01,2013-03-23 15:15:00,
2013-03-23 09:20:00,21.5,15.4,30.15,WNW,293,2.0,2.0,77,0.00,,,0.00,VWS V14.01,2013-03-23 15:20:00,
2013-03-23 09:25:00,21.9,15.8,30.15,WNW,297,5.0,5.0,77,0.00,,,0.00,VWS V14.01,2013-03-23 15:25:00,
2013-03-23 09:30:00,22.3,16.2,30.15,WNW,302,3.0,3.0,77,0.00,,,0.00,VWS V14.01,2013-03-23 15:30:00,
2013-03-23 09:35:00,22.4,16.0,30.15,WNW,297,2.0,5.0,76,0.00,,,0.00,VWS V14.01,2013-03-23 15:35:00,
2013-03-23 09:40:00,22.5,16.1,30.15,WNW,293,7.0,7.0,76,0.00,,,0.00,VWS V14.01,2013-03-23 15:40:00,
2013-03-23 09:45:00,22.7,16.6,30.15,WNW,285,4.0,8.0,77,0.00,,,0.00,VWS V14.01,2013-03-23 15:45:00,
2013-03-23 09:50:00,22.9,16.8,30.15,WNW,282,5.0,6.0,77,0.00,,,0.00,VWS V14.01,2013-03-23 15:50:00,
2013-03-23 09:55:00,23.0,16.6,30.15,NW,304,5.0,8.0,76,0.00,,,0.00,VWS V14.01,2013-03-23 15:55:00,
2013-03-23 10:00:00,23.1,17.0,30.15,West,278,1.0,2.0,77,0.00,,,0.00,VWS V14.01,2013-03-23 16:00:00,
2013-03-23 10:05:00,23.2,17.1,30.15,WNW,299,4.0,5.0,77,0.00,,,0.00,VWS V14.01,2013-03-23 16:05:00,
2013-03-23 10:10:00,23.6,17.5,30.15,NW,306,5.0,5.0,77,0.00,,,0.00,VWS V14.01,2013-03-23 16:10:00,
2013-03-23 10:15:00,23.7,17.6,30.16,NW,322,4.0,4.0,77,0.00,,,0.00,VWS V14.01,2013-03-23 16:15:00,
2013-03-23 10:20:00,24.0,17.9,30.15,WNW,302,5.0,5.0,77,0.00,,,0.00,VWS V14.01,2013-03-23 16:20:00,
2013-03-23 10:25:00,24.0,17.5,30.16,WNW,302,2.0,5.0,76,0.00,,,0.00,VWS V14.01,2013-03-23 16:25:00,
2013-03-23 10:30:00,24.1,17.6,30.16,WNW,297,2.0,4.0,76,0.00,,,0.00,VWS V14.01,2013-03-23 16:30:00,
2013-03-23 10:35:00,24.4,17.9,30.16,NW,309,2.0,2.0,76,0.00,,,0.00,VWS V14.01,2013-03-23 16:35:00,
2013-03-23 10:40:00,24.8,18.0,30.16,WNW,284,2.0,3.0,75,0.00,,,0.00,VWS V14.01,2013-03-23 16:40:00,
2013-03-23 10:45:00,24.8,18.0,30.16,NW,318,2.0,3.0,75,0.00,,,0.00,VWS V14.01,2013-03-23 16:45:00,
2013-03-23 10:50:00,25.2,18.7,30.16,WNW,285,2.0,2.0,76,0.00,,,0.00,VWS V14.01,2013-03-23 16:50:00,
2013-03-23 10:55:00,25.4,18.6,30.16,SW,232,2.0,3.0,75,0.00,,,0.00,VWS V14.01,2013-03-23 16:55:00,
2013-03-23 11:00:00,25.8,19.0,30.16,West,280,2.0,2.0,75,0.00,,,0.00,VWS V14.01,2013-03-23 17:00:00,
2013-03-23 11:05:00,26.0,19.5,30.16,WSW,257,1.0,1.0,76,0.00,,,0.00,VWS V14.01,2013-03-23 17:05:00,
2013-03-23 11:10:00,26.5,19.7,30.16,NNW,338,3.0,4.0,75,0.00,,,0.00,VWS V14.01,2013-03-23 17:10:00,
2013-03-23 11:15:00,26.5,19.4,30.16,NNW,328,2.0,3.0,74,0.00,,,0.00,VWS V14.01,2013-03-23 17:15:00,
2013-03-23 11:20:00,26.5,19.7,30.16,NNE,22,1.0,1.0,75,0.00,,,0.00,VWS V14.01,2013-03-23 17:20:00,
2013-03-23 11:25:00,26.7,18.9,30.15,NNW,328,0.0,1.0,72,0.00,,,0.00,VWS V14.01,2013-03-23 17:25:00,
2013-03-23 11:30:00,26.9,19.4,30.15,NNW,327,3.0,4.0,73,0.00,,,0.00,VWS V14.01,2013-03-23 17:30:00,
2013-03-23 11:35:00,27.1,19.6,30.15,ENE,73,2.0,2.0,73,0.00,,,0.00,VWS V14.01,2013-03-23 17:35:00,
2013-03-23 11:40:00,27.6,20.4,30.15,NNE,15,2.0,2.0,74,0.00,,,0.00,VWS V14.01,2013-03-23 17:40:00,
2013-03-23 11:45:00,27.8,20.0,30.15,WSW,244,2.0,2.0,72,0.00,,,0.00,VWS V14.01,2013-03-23 17:45:00,
2013-03-23 11:50:00,28.7,21.5,30.15,ENE,61,1.0,1.0,74,0.00,,,0.00,VWS V14.01,2013-03-23 17:50:00,
2013-03-23 11:55:00,29.9,22.0,30.15,WSW,255,0.0,2.0,72,0.00,,,0.00,VWS V14.01,2013-03-23 17:55:00,
2013-03-23 12:00:00,30.8,22.9,30.15,SW,218,1.0,2.0,72,0.00,,,0.00,VWS V14.01,2013-03-23 18:00:00,
2013-03-23 12:05:00,30.7,21.1,30.15,SW,219,3.0,4.0,67,0.00,,,0.00,VWS V14.01,2013-03-23 18:05:00,
2013-03-23 12:10:00,30.3,21.7,30.15,WNW,287,1.0,1.0,70,0.00,,,0.00,VWS V14.01,2013-03-23 18:10:00,
2013-03-23 12:15:00,30.4,22.5,30.15,WSW,245,4.0,6.0,72,0.00,,,0.00,VWS V14.01,2013-03-23 18:15:00,
2013-03-23 12:20:00,30.3,22.7,30.14,SW,224,4.0,4.0,73,0.01,,,0.01,VWS V14.01,2013-03-23 18:20:00,
2013-03-23 12:25:00,30.7,22.4,30.14,SSW,200,2.0,2.0,71,0.01,,,0.01,VWS V14.01,2013-03-23 18:25:00,
2013-03-23 12:30:00,31.2,22.9,30.14,SSE,150,2.0,3.0,71,0.01,,,0.01,VWS V14.01,2013-03-23 18:30:00,
2013-03-23 12:35:00,31.8,22.1,30.14,NNW,327,2.0,2.0,67,0.01,,,0.01,VWS V14.01,2013-03-23 18:35:00,
2013-03-23 12:40:00,32.0,23.0,30.14,SW,215,4.0,5.0,69,0.01,,,0.01,VWS V14.01,2013-03-23 18:40:00,
2013-03-23 12:45:00,31.7,22.4,30.14,West,259,4.0,7.0,68,0.01,,,0.01,VWS V14.01,2013-03-23 18:45:00,
2013-03-23 12:50:00,31.6,21.2,30.14,SW,232,2.0,5.0,65,0.01,,,0.01,VWS V14.01,2013-03-23 18:50:00,
2013-03-23 12:55:00,31.3,20.9,30.14,WNW,303,2.0,3.0,65,0.01,,,0.01,VWS V14.01,2013-03-23 18:55:00,
2013-03-23 13:00:00,31.3,20.9,30.13,SW,228,4.0,5.0,65,0.01,,,0.01,VWS V14.01,2013-03-23 19:00:00,
2013-03-23 13:01:00,31.2,20.5,30.13,WSW,248,5.0,6.0,64,0.01,,,0.01,VWS V14.01,2013-03-23 19:01:00,
2013-03-23 13:05:00,31.5,20.4,30.13,SE,125,0.0,6.0,63,0.01,,,0.01,VWS V14.01,2013-03-23 19:05:00,
2013-03-23 13:06:00,31.5,21.1,30.13,SW,228,4.0,4.0,65,0.01,,,0.01,VWS V14.01,2013-03-23 19:06:00,
2013-03-23 13:10:00,31.8,20.7,30.13,SSW,200,5.0,5.0,63,0.01,,,0.01,VWS V14.01,2013-03-23 19:10:00,
2013-03-23 13:11:00,31.8,20.7,30.13,SE,143,1.0,6.0,63,0.01,,,0.01,VWS V14.01,2013-03-23 19:11:00,
2013-03-23 13:15:00,31.9,21.1,30.13,SSE,149,5.0,6.0,64,0.01,,,0.01,VWS V14.01,2013-03-23 19:15:00,
2013-03-23 13:16:00,32.0,21.2,30.13,SSE,152,5.0,7.0,64,0.01,,,0.01,VWS V14.01,2013-03-23 19:16:00,
2013-03-23 13:20:00,32.0,21.2,30.13,ESE,110,3.0,7.0,64,0.01,,,0.01,VWS V14.01,2013-03-23 19:20:00,
2013-03-23 13:21:00,31.8,20.7,30.13,ESE,108,5.0,6.0,63,0.00,,,0.01,VWS V14.01,2013-03-23 19:21:00,
2013-03-23 13:25:00,31.8,22.5,30.13,ENE,75,4.0,8.0,68,0.00,,,0.01,VWS V14.01,2013-03-23 19:25:00,
2013-03-23 13:26:00,31.7,21.3,30.12,ENE,58,5.0,8.0,65,0.00,,,0.01,VWS V14.01,2013-03-23 19:26:00,
2013-03-23 13:30:00,31.4,20.3,30.12,SE,129,2.0,8.0,63,0.00,,,0.01,VWS V14.01,2013-03-23 19:30:00,
2013-03-23 13:31:00,31.4,21.0,30.12,East,86,2.0,5.0,65,0.00,,,0.01,VWS V14.01,2013-03-23 19:31:00,
2013-03-23 13:35:00,31.8,21.8,30.12,SW,231,4.0,6.0,66,0.00,,,0.01,VWS V14.01,2013-03-23 19:35:00,
2013-03-23 13:36:00,32.1,21.7,30.12,SW,226,4.0,5.0,65,0.00,,,0.01,VWS V14.01,2013-03-23 19:36:00,
2013-03-23 13:40:00,32.8,21.6,30.12,SE,139,3.0,7.0,63,0.00,,,0.01,VWS V14.01,2013-03-23 19:40:00,
2013-03-23 13:41:00,32.9,21.7,30.12,WSW,239,4.0,7.0,63,0.00,,,0.01,VWS V14.01,2013-03-23 19:41:00,
2013-03-23 13:45:00,32.9,21.3,30.12,SW,231,7.0,8.0,62,0.00,,,0.01,VWS V14.01,2013-03-23 19:45:00,
2013-03-23 13:46:00,32.8,21.6,30.12,SE,146,3.0,7.0,63,0.00,,,0.01,VWS V14.01,2013-03-23 19:46:00,
2013-03-23 13:50:00,32.8,21.6,30.12,SSW,204,4.0,7.0,63,0.00,,,0.01,VWS V14.01,2013-03-23 19:50:00,
2013-03-23 13:51:00,32.9,20.9,30.12,SSE,160,3.0,7.0,61,0.00,,,0.01,VWS V14.01,2013-03-23 19:51:00,
2013-03-23 13:55:00,33.5,22.6,30.12,SE,143,6.0,7.0,64,0.00,,,0.01,VWS V14.01,2013-03-23 19:55:00,
2013-03-23 13:56:00,33.4,21.0,30.12,SE,139,5.0,8.0,60,0.00,,,0.01,VWS V14.01,2013-03-23 19:56:00,
2013-03-23 14:00:00,32.8,20.8,30.11,SW,236,3.0,8.0,61,0.00,,,0.01,VWS V14.01,2013-03-23 20:00:00,
2013-03-23 14:02:00,32.6,21.0,30.12,SE,132,5.0,9.0,62,0.00,,,0.01,VWS V14.01,2013-03-23 20:02:00,
2013-03-23 14:05:00,32.5,21.3,30.12,SE,126,5.0,9.0,63,0.00,,,0.01,VWS V14.01,2013-03-23 20:05:00,
2013-03-23 14:07:00,32.4,20.9,30.11,SE,129,2.0,5.0,62,0.00,,,0.01,VWS V14.01,2013-03-23 20:07:00,
2013-03-23 14:10:00,32.4,21.2,30.11,SE,139,2.0,5.0,63,0.00,,,0.01,VWS V14.01,2013-03-23 20:10:00,
2013-03-23 14:12:00,32.8,22.3,30.11,SE,131,3.0,7.0,65,0.00,,,0.01,VWS V14.01,2013-03-23 20:12:00,
2013-03-23 14:15:00,33.1,23.4,30.11,South,188,3.0,7.0,67,0.00,,,0.01,VWS V14.01,2013-03-23 20:15:00,
2013-03-23 14:17:00,33.7,24.3,30.11,SSW,212,5.0,8.0,68,0.00,,,0.01,VWS V14.01,2013-03-23 20:17:00,
2013-03-23 14:20:00,33.8,22.6,30.11,SE,129,3.0,10.0,63,0.00,,,0.01,VWS V14.01,2013-03-23 20:20:00,
2013-03-23 14:22:00,33.9,24.1,30.11,SE,141,5.0,8.0,67,0.00,,,0.01,VWS V14.01,2013-03-23 20:22:00,
2013-03-23 14:25:00,33.9,23.4,30.11,SE,144,4.0,9.0,65,0.00,,,0.01,VWS V14.01,2013-03-23 20:25:00,
2013-03-23 14:27:00,33.6,23.1,30.11,SE,134,4.0,9.0,65,0.00,,,0.01,VWS V14.01,2013-03-23 20:27:00,
2013-03-23 14:30:00,33.6,23.5,30.11,SSW,204,6.0,10.0,66,0.00,,,0.01,VWS V14.01,2013-03-23 20:30:00,
2013-03-23 14:32:00,33.4,22.9,30.11,South,172,6.0,10.0,65,0.00,,,0.01,VWS V14.01,2013-03-23 20:32:00,
2013-03-23 14:35:00,33.3,23.2,30.11,SSE,163,6.0,10.0,66,0.00,,,0.01,VWS V14.01,2013-03-23 20:35:00,
2013-03-23 14:37:00,33.2,22.0,30.11,SW,221,3.0,9.0,63,0.00,,,0.01,VWS V14.01,2013-03-23 20:37:00,
2013-03-23 14:40:00,33.2,22.4,30.11,ESE,121,5.0,9.0,64,0.00,,,0.01,VWS V14.01,2013-03-23 20:40:00,
2013-03-23 14:42:00,33.2,22.4,30.11,SSE,167,1.0,9.0,64,0.00,,,0.01,VWS V14.01,2013-03-23 20:42:00,
2013-03-23 14:45:00,33.3,22.5,30.11,SSE,153,7.0,9.0,64,0.00,,,0.01,VWS V14.01,2013-03-23 20:45:00,
2013-03-23 14:47:00,33.4,22.5,30.11,SSE,148,3.0,8.0,64,0.00,,,0.01,VWS V14.01,2013-03-23 20:47:00,
2013-03-23 14:50:00,33.4,22.9,30.11,SW,221,3.0,8.0,65,0.00,,,0.01,VWS V14.01,2013-03-23 20:50:00,
2013-03-23 14:52:00,33.5,22.3,30.10,WSW,255,5.0,10.0,63,0.00,,,0.01,VWS V14.01,2013-03-23 20:52:00,
2013-03-23 14:55:00,33.2,22.0,30.11,SSW,212,6.0,10.0,63,0.00,,,0.01,VWS V14.01,2013-03-23 20:55:00,
2013-03-23 14:57:00,32.7,21.1,30.10,SW,217,6.0,8.0,62,0.00,,,0.01,VWS V14.01,2013-03-23 20:57:00,
2013-03-23 15:00:00,32.4,21.2,30.10,South,173,5.0,9.0,63,0.00,,,0.01,VWS V14.01,2013-03-23 21:00:00,
2013-03-23 15:02:00,32.1,20.9,30.11,SSE,156,5.0,10.0,63,0.00,,,0.01,VWS V14.01,2013-03-23 21:02:00,
2013-03-23 15:05:00,31.8,21.0,30.11,SW,221,4.0,10.0,64,0.00,,,0.01,VWS V14.01,2013-03-23 21:05:00,
2013-03-23 15:07:00,31.8,21.4,30.11,SW,226,6.0,7.0,65,0.00,,,0.01,VWS V14.01,2013-03-23 21:07:00,
2013-03-23 15:10:00,31.8,21.4,30.11,SW,224,5.0,8.0,65,0.00,,,0.01,VWS V14.01,2013-03-23 21:10:00,
2013-03-23 15:12:00,31.8,21.4,30.11,SW,223,9.0,9.0,65,0.00,,,0.01,VWS V14.01,2013-03-23 21:12:00,
2013-03-23 15:15:00,31.7,20.9,30.11,SE,139,6.0,9.0,64,0.00,,,0.01,VWS V14.01,2013-03-23 21:15:00,
2013-03-23 15:17:00,31.6,20.8,30.11,SSW,197,5.0,8.0,64,0.00,,,0.01,VWS V14.01,2013-03-23 21:17:00,
2013-03-23 15:20:00,31.7,22.0,30.11,SSE,150,4.0,8.0,67,0.00,,,0.01,VWS V14.01,2013-03-23 21:20:00,
2013-03-23 15:22:00,32.2,22.8,30.10,SSW,195,6.0,7.0,68,0.00,,,0.01,VWS V14.01,2013-03-23 21:22:00,
2013-03-23 15:25:00,32.7,22.6,30.10,SSW,200,8.0,10.0,66,0.00,,,0.01,VWS V14.01,2013-03-23 21:25:00,
2013-03-23 15:27:00,33.1,22.3,30.10,SE,127,6.0,9.0,64,0.00,,,0.01,VWS V14.01,2013-03-23 21:27:00,
2013-03-23 15:30:00,33.2,22.7,30.10,SW,231,5.0,9.0,65,0.00,,,0.01,VWS V14.01,2013-03-23 21:30:00,
2013-03-23 15:32:00,33.3,21.7,30.10,SSE,163,6.0,10.0,62,0.00,,,0.01,VWS V14.01,2013-03-23 21:32:00,
2013-03-23 15:35:00,33.3,22.1,30.10,SSW,195,5.0,10.0,63,0.00,,,0.01,VWS V14.01,2013-03-23 21:35:00,
2013-03-23 15:37:00,33.2,22.7,30.10,South,187,4.0,9.0,65,0.00,,,0.01,VWS V14.01,2013-03-23 21:37:00,
2013-03-23 15:40:00,32.9,22.8,30.10,SSE,163,6.0,9.0,66,0.00,,,0.01,VWS V14.01,2013-03-23 21:40:00,
2013-03-23 15:42:00,33.0,23.2,30.10,South,180,6.0,7.0,67,0.00,,,0.01,VWS V14.01,2013-03-23 21:42:00,
2013-03-23 15:45:00,33.2,23.8,30.10,SSW,198,4.0,9.0,68,0.00,,,0.01,VWS V14.01,2013-03-23 21:45:00,
2013-03-23 15:47:00,33.4,24.0,30.10,SW,221,4.0,7.0,68,0.00,,,0.01,VWS V14.01,2013-03-23 21:47:00,
2013-03-23 15:50:00,33.5,23.7,30.10,SE,143,6.0,7.0,67,0.00,,,0.01,VWS V14.01,2013-03-23 21:50:00,
2013-03-23 15:53:00,33.7,23.9,30.10,SSE,153,5.0,8.0,67,0.00,,,0.01,VWS V14.01,2013-03-23 21:53:00,
2013-03-23 15:55:00,33.7,23.2,30.10,SE,146,6.0,8.0,65,0.00,,,0.01,VWS V14.01,2013-03-23 21:55:00,
2013-03-23 15:58:00,33.8,22.9,30.10,SSE,155,3.0,7.0,64,0.00,,,0.01,VWS V14.01,2013-03-23 21:58:00,
2013-03-23 16:00:00,33.9,23.8,30.10,SSE,158,6.0,7.0,66,0.00,,,0.01,VWS V14.01,2013-03-23 22:00:00,
2013-03-23 16:03:00,34.1,23.6,30.10,SSW,204,6.0,7.0,65,0.00,,,0.01,VWS V14.01,2013-03-23 22:03:00,
2013-03-23 16:05:00,34.2,23.7,30.10,ESE,122,7.0,8.0,65,0.00,,,0.01,VWS V14.01,2013-03-23 22:05:00,
2013-03-23 16:08:00,34.1,22.8,30.10,SW,235,5.0,8.0,63,0.00,,,0.01,VWS V14.01,2013-03-23 22:08:00,
2013-03-23 16:10:00,34.2,23.7,30.10,South,183,8.0,8.0,65,0.00,,,0.01,VWS V14.01,2013-03-23 22:10:00,
2013-03-23 16:13:00,34.0,22.0,30.10,SW,217,6.0,9.0,61,0.00,,,0.01,VWS V14.01,2013-03-23 22:13:00,
2013-03-23 16:15:00,33.7,22.5,30.10,WSW,245,6.0,9.0,63,0.00,,,0.01,VWS V14.01,2013-03-23 22:15:00,
2013-03-23 16:18:00,33.3,22.5,30.10,SSW,203,5.0,6.0,64,0.00,,,0.01,VWS V14.01,2013-03-23 22:18:00,
2013-03-23 16:20:00,33.2,22.7,30.10,SW,236,5.0,7.0,65,0.00,,,0.01,VWS V14.01,2013-03-23 22:20:00,
2013-03-23 16:23:00,33.4,23.3,30.10,SSW,207,2.0,7.0,66,0.00,,,0.01,VWS V14.01,2013-03-23 22:23:00,
2013-03-23 16:25:00,33.6,22.4,30.10,SW,235,6.0,9.0,63,0.00,,,0.01,VWS V14.01,2013-03-23 22:25:00,
2013-03-23 16:28:00,33.7,22.1,30.10,SW,215,4.0,10.0,62,0.00,,,0.01,VWS V14.01,2013-03-23 22:28:00,
2013-03-23 16:30:00,33.9,22.3,30.10,SW,222,4.0,10.0,62,0.00,,,0.01,VWS V14.01,2013-03-23 22:30:00,
2013-03-23 16:33:00,34.0,21.6,30.10,SSE,167,2.0,5.0,60,0.00,,,0.01,VWS V14.01,2013-03-23 22:33:00,
2013-03-23 16:35:00,34.3,22.6,30.10,SSW,194,5.0,6.0,62,0.00,,,0.01,VWS V14.01,2013-03-23 22:35:00,
2013-03-23 16:38:00,34.4,22.0,30.10,WSW,255,1.0,8.0,60,0.00,,,0.01,VWS V14.01,2013-03-23 22:38:00,
2013-03-23 16:40:00,34.5,22.8,30.10,SSW,212,2.0,8.0,62,0.00,,,0.01,VWS V14.01,2013-03-23 22:40:00,
2013-03-23 16:43:00,34.6,22.2,30.10,SW,230,3.0,8.0,60,0.00,,,0.01,VWS V14.01,2013-03-23 22:43:00,
2013-03-23 16:45:00,34.6,22.9,30.09,West,259,7.0,8.0,62,0.00,,,0.01,VWS V14.01,2013-03-23 22:45:00,
2013-03-23 16:48:00,34.5,22.1,30.09,SSW,194,5.0,10.0,60,0.00,,,0.01,VWS V14.01,2013-03-23 22:48:00,
2013-03-23 16:50:00,34.6,22.9,30.09,SE,146,4.0,10.0,62,0.00,,,0.01,VWS V14.01,2013-03-23 22:50:00,
2013-03-23 16:53:00,35.0,22.9,30.09,SE,135,7.0,7.0,61,0.00,,,0.01,VWS V14.01,2013-03-23 22:53:00,
2013-03-23 16:55:00,35.0,22.9,30.09,SSW,200,5.0,7.0,61,0.00,,,0.01,VWS V14.01,2013-03-23 22:55:00,
2013-03-23 16:58:00,34.9,22.8,30.09,SE,141,3.0,7.0,61,0.00,,,0.01,VWS V14.01,2013-03-23 22:58:00,
2013-03-23 17:00:00,34.8,22.7,30.09,South,176,3.0,7.0,61,0.00,,,0.01,VWS V14.01,2013-03-23 23:00:00,
2013-03-23 17:03:00,34.9,23.2,30.09,SE,139,4.0,5.0,62,0.00,,,0.01,VWS V14.01,2013-03-23 23:03:00,
2013-03-23 17:05:00,34.7,22.2,30.09,South,169,2.0,5.0,60,0.00,,,0.01,VWS V14.01,2013-03-23 23:05:00,
2013-03-23 17:08:00,34.1,22.5,30.09,SW,219,3.0,8.0,62,0.00,,,0.01,VWS V14.01,2013-03-23 23:08:00,
2013-03-23 17:10:00,33.9,21.9,30.09,SSW,206,2.0,8.0,61,0.00,,,0.01,VWS V14.01,2013-03-23 23:10:00,
2013-03-23 17:13:00,33.4,22.2,30.09,South,184,4.0,9.0,63,0.00,,,0.01,VWS V14.01,2013-03-23 23:13:00,
2013-03-23 17:15:00,33.2,21.6,30.09,SW,215,3.0,9.0,62,0.00,,,0.01,VWS V14.01,2013-03-23 23:15:00,
2013-03-23 17:18:00,33.0,22.5,30.09,SSW,205,5.0,7.0,65,0.00,,,0.01,VWS V14.01,2013-03-23 23:18:00,
2013-03-23 17:20:00,33.0,22.5,30.09,SSW,197,3.0,7.0,65,0.00,,,0.01,VWS V14.01,2013-03-23 23:20:00,
2013-03-23 17:23:00,33.0,22.9,30.09,South,191,5.0,8.0,66,0.00,,,0.01,VWS V14.01,2013-03-23 23:23:00,
2013-03-23 17:25:00,33.2,23.1,30.09,SSW,204,5.0,9.0,66,0.00,,,0.01,VWS V14.01,2013-03-23 23:25:00,
2013-03-23 17:28:00,33.5,23.4,30.09,SE,142,7.0,11.0,66,0.00,,,0.01,VWS V14.01,2013-03-23 23:28:00,
2013-03-23 17:30:00,33.5,22.6,30.09,SE,141,10.0,12.0,64,0.00,,,0.01,VWS V14.01,2013-03-23 23:30:00,
2013-03-23 17:33:00,33.3,22.1,30.09,SSW,197,4.0,11.0,63,0.00,,,0.01,VWS V14.01,2013-03-23 23:33:00,
2013-03-23 17:35:00,33.4,22.9,30.09,SSW,195,6.0,11.0,65,0.00,,,0.01,VWS V14.01,2013-03-23 23:35:00,
2013-03-23 17:38:00,33.8,22.9,30.09,SSE,165,3.0,8.0,64,0.00,,,0.01,VWS V14.01,2013-03-23 23:38:00,
2013-03-23 17:40:00,33.8,22.9,30.09,SSE,158,3.0,8.0,64,0.00,,,0.01,VWS V14.01,2013-03-23 23:40:00,
2013-03-23 17:43:00,33.9,23.0,30.09,SE,131,7.0,7.0,64,0.00,,,0.01,VWS V14.01,2013-03-23 23:43:00,
2013-03-23 17:45:00,33.8,22.6,30.09,SE,146,5.0,8.0,63,0.00,,,0.01,VWS V14.01,2013-03-23 23:45:00,
2013-03-23 17:48:00,33.9,23.4,30.09,SSE,156,5.0,7.0,65,0.00,,,0.01,VWS V14.01,2013-03-23 23:48:00,
2013-03-23 17:50:00,33.9,23.4,30.09,South,190,5.0,7.0,65,0.00,,,0.01,VWS V14.01,2013-03-23 23:50:00,
2013-03-23 17:53:00,34.0,22.4,30.09,SSW,195,2.0,7.0,62,0.00,,,0.01,VWS V14.01,2013-03-23 23:53:00,
2013-03-23 17:55:00,33.9,22.3,30.09,SW,231,3.0,7.0,62,0.00,,,0.01,VWS V14.01,2013-03-23 23:55:00,
2013-03-23 17:58:00,33.8,22.5,30.09,SW,220,3.0,6.0,63,0.00,,,0.01,VWS V14.01,2013-03-23 23:58:00,
2013-03-23 18:00:00,33.6,22.4,30.09,SW,216,1.0,6.0,63,0.00,,,0.01,VWS V14.01,2013-03-24 00:00:00,
2013-03-23 18:04:00,33.0,22.2,30.09,South,174,2.0,6.0,64,0.00,,,0.01,VWS V14.01,2013-03-24 00:04:00,
2013-03-23 18:05:00,33.0,22.2,30.09,SSE,149,4.0,6.0,64,0.00,,,0.01,VWS V14.01,2013-03-24 00:05:00,
2013-03-23 18:09:00,33.3,22.8,30.09,SSW,193,7.0,8.0,65,0.00,,,0.01,VWS V14.01,2013-03-24 00:09:00,
2013-03-23 18:10:00,33.5,23.0,30.09,SSE,167,6.0,8.0,65,0.00,,,0.01,VWS V14.01,2013-03-24 00:10:00,
2013-03-23 18:14:00,33.8,23.7,30.09,SSE,158,5.0,8.0,66,0.00,,,0.01,VWS V14.01,2013-03-24 00:14:00,
2013-03-23 18:15:00,33.7,23.9,30.09,SSE,156,5.0,8.0,67,0.00,,,0.01,VWS V14.01,2013-03-24 00:15:00,
2013-03-23 18:19:00,33.3,23.9,30.09,SSE,166,4.0,11.0,68,0.00,,,0.01,VWS V14.01,2013-03-24 00:19:00,
2013-03-23 18:20:00,33.3,24.2,30.09,South,174,5.0,11.0,69,0.00,,,0.01,VWS V14.01,2013-03-24 00:20:00,
2013-03-23 18:24:00,33.2,23.8,30.09,SE,143,4.0,10.0,68,0.00,,,0.01,VWS V14.01,2013-03-24 00:24:00,
2013-03-23 18:25:00,33.2,23.8,30.09,SE,145,5.0,10.0,68,0.00,,,0.01,VWS V14.01,2013-03-24 00:25:00,
2013-03-23 18:29:00,33.3,24.2,30.09,SE,138,6.0,7.0,69,0.00,,,0.01,VWS V14.01,2013-03-24 00:29:00,
2013-03-23 18:30:00,33.3,23.9,30.09,SE,135,3.0,7.0,68,0.00,,,0.01,VWS V14.01,2013-03-24 00:30:00,
2013-03-23 18:34:00,33.3,23.9,30.09,ESE,122,5.0,6.0,68,0.00,,,0.01,VWS V14.01,2013-03-24 00:34:00,
2013-03-23 18:35:00,33.2,23.8,30.09,South,172,3.0,6.0,68,0.00,,,0.01,VWS V14.01,2013-03-24 00:35:00,
2013-03-23 18:39:00,32.7,23.3,30.09,SSW,199,3.0,7.0,68,0.00,,,0.01,VWS V14.01,2013-03-24 00:39:00,
2013-03-23 18:40:00,32.7,23.3,30.09,SSE,166,4.0,7.0,68,0.00,,,0.01,VWS V14.01,2013-03-24 00:40:00,
2013-03-23 18:44:00,32.7,23.3,30.09,SSE,150,3.0,5.0,68,0.00,,,0.01,VWS V14.01,2013-03-24 00:44:00,
2013-03-23 18:45:00,32.7,23.3,30.09,SE,141,5.0,7.0,68,0.00,,,0.01,VWS V14.01,2013-03-24 00:45:00,
2013-03-23 18:49:00,32.5,23.5,30.09,SSE,148,3.0,6.0,69,0.00,,,0.01,VWS V14.01,2013-03-24 00:49:00,
2013-03-23 18:50:00,32.5,23.5,30.09,SE,140,3.0,6.0,69,0.00,,,0.01,VWS V14.01,2013-03-24 00:50:00,
2013-03-23 18:54:00,31.9,22.9,30.09,SSE,153,5.0,6.0,69,0.00,,,0.01,VWS V14.01,2013-03-24 00:54:00,
2013-03-23 18:55:00,31.8,22.8,30.09,SSE,147,4.0,6.0,69,0.00,,,0.01,VWS V14.01,2013-03-24 00:55:00,
2013-03-23 18:59:00,31.4,22.8,30.09,SSE,153,5.0,6.0,70,0.00,,,0.01,VWS V14.01,2013-03-24 00:59:00,
2013-03-23 19:00:00,31.3,23.0,30.09,SSE,149,4.0,7.0,71,0.00,,,0.01,VWS V14.01,2013-03-24 01:00:00,
2013-03-23 19:04:00,30.9,23.0,30.09,SE,141,4.0,6.0,72,0.00,,,0.01,VWS V14.01,2013-03-24 01:04:00,
2013-03-23 19:05:00,30.8,22.9,30.09,SE,136,3.0,6.0,72,0.00,,,0.01,VWS V14.01,2013-03-24 01:05:00,
2013-03-23 19:09:00,30.5,22.6,30.09,SSE,155,3.0,3.0,72,0.00,,,0.01,VWS V14.01,2013-03-24 01:09:00,
2013-03-23 19:10:00,30.4,22.5,30.09,SE,146,3.0,3.0,72,0.00,,,0.01,VWS V14.01,2013-03-24 01:10:00,
2013-03-23 19:14:00,30.1,22.2,30.09,SE,128,1.0,4.0,72,0.00,,,0.01,VWS V14.01,2013-03-24 01:14:00,
2013-03-23 19:15:00,30.1,22.5,30.09,SE,139,2.0,4.0,73,0.00,,,0.01,VWS V14.01,2013-03-24 01:15:00,
2013-03-23 19:19:00,29.9,22.3,30.09,ESE,121,2.0,3.0,73,0.00,,,0.01,VWS V14.01,2013-03-24 01:19:00,
2013-03-23 19:20:00,29.9,22.3,30.09,ESE,121,3.0,3.0,73,0.00,,,0.01,VWS V14.01,2013-03-24 01:20:00,
2013-03-23 19:24:00,29.7,22.4,30.10,ESE,122,2.0,3.0,74,0.00,,,0.01,VWS V14.01,2013-03-24 01:24:00,
2013-03-23 19:25:00,29.6,22.3,30.10,ESE,118,1.0,3.0,74,0.00,,,0.01,VWS V14.01,2013-03-24 01:25:00,
2013-03-23 19:29:00,29.6,22.4,30.10,SE,129,3.0,3.0,74,0.00,,,0.01,VWS V14.01,2013-03-24 01:29:00,
2013-03-23 19:30:00,29.5,22.2,30.10,ESE,121,2.0,3.0,74,0.00,,,0.01,VWS V14.01,2013-03-24 01:30:00,
2013-03-23 19:34:00,29.5,22.6,30.10,ESE,120,2.0,3.0,75,0.00,,,0.01,VWS V14.01,2013-03-24 01:34:00,
2013-03-23 19:35:00,29.6,22.7,30.10,ESE,123,2.0,3.0,75,0.00,,,0.01,VWS V14.01,2013-03-24 01:35:00,
2013-03-23 19:39:00,29.6,22.7,30.10,ESE,108,2.0,3.0,75,0.00,,,0.01,VWS V14.01,2013-03-24 01:39:00,
2013-03-23 19:40:00,29.6,22.7,30.10,ESE,110,2.0,3.0,75,0.00,,,0.01,VWS V14.01,2013-03-24 01:40:00,
2013-03-23 19:44:00,29.3,22.7,30.10,ESE,106,1.0,3.0,76,0.00,,,0.01,VWS V14.01,2013-03-24 01:44:00,
2013-03-23 19:45:00,29.3,22.7,30.10,ESE,105,1.0,3.0,76,0.00,,,0.01,VWS V14.01,2013-03-24 01:45:00,
2013-03-23 19:49:00,29.1,22.8,30.10,SSE,148,1.0,1.0,77,0.00,,,0.01,VWS V14.01,2013-03-24 01:49:00,
2013-03-23 19:50:00,29.1,22.8,30.10,SSE,150,0.0,1.0,77,0.00,,,0.01,VWS V14.01,2013-03-24 01:50:00,
2013-03-23 19:54:00,29.0,22.7,30.10,SSE,155,0.0,2.0,77,0.00,,,0.01,VWS V14.01,2013-03-24 01:54:00,
2013-03-23 19:55:00,29.0,22.7,30.10,SSE,155,0.0,2.0,77,0.00,,,0.01,VWS V14.01,2013-03-24 01:55:00,
2013-03-23 19:59:00,28.9,22.6,30.10,SSW,204,0.0,1.0,77,0.00,,,0.01,VWS V14.01,2013-03-24 01:59:00,
2013-03-23 20:00:00,28.9,22.6,30.10,SSW,204,0.0,1.0,77,0.00,,,0.01,VWS V14.01,2013-03-24 02:00:00,
2013-03-23 20:04:00,28.6,22.3,30.10,SSW,209,0.0,1.0,77,0.00,,,0.01,VWS V14.01,2013-03-24 02:04:00,
2013-03-23 20:05:00,28.6,22.3,30.10,SSW,208,0.0,1.0,77,0.00,,,0.01,VWS V14.01,2013-03-24 02:05:00,
2013-03-23 20:09:00,28.3,22.3,30.10,SSW,208,0.0,0.0,78,0.00,,,0.01,VWS V14.01,2013-03-24 02:09:00,
2013-03-23 20:10:00,28.3,22.3,30.10,SSW,208,0.0,1.0,78,0.00,,,0.01,VWS V14.01,2013-03-24 02:10:00,
2013-03-23 20:14:00,28.0,22.3,30.10,SSW,208,0.0,0.0,79,0.00,,,0.01,VWS V14.01,2013-03-24 02:14:00,
2013-03-23 20:15:00,28.0,22.3,30.10,SSW,208,0.0,0.0,79,0.00,,,0.01,VWS V14.01,2013-03-24 02:15:00,
2013-03-23 20:19:00,27.5,22.5,30.10,ENE,72,2.0,2.0,81,0.00,,,0.01,VWS V14.01,2013-03-24 02:19:00,
2013-03-23 20:20:00,27.5,22.5,30.10,ENE,66,1.0,2.0,81,0.00,,,0.01,VWS V14.01,2013-03-24 02:20:00,
2013-03-23 20:24:00,27.7,22.4,30.11,ENE,67,2.0,2.0,80,0.00,,,0.01,VWS V14.01,2013-03-24 02:24:00,
2013-03-23 20:25:00,27.6,22.2,30.11,ENE,66,2.0,2.0,80,0.00,,,0.01,VWS V14.01,2013-03-24 02:25:00,
2013-03-23 20:29:00,27.6,22.0,30.11,NE,53,3.0,3.0,79,0.00,,,0.01,VWS V14.01,2013-03-24 02:29:00,
2013-03-23 20:30:00,27.6,22.0,30.11,NE,53,3.0,3.0,79,0.00,,,0.01,VWS V14.01,2013-03-24 02:30:00,
2013-03-23 20:34:00,27.4,21.8,30.11,ENE,75,4.0,5.0,79,0.00,,,0.01,VWS V14.01,2013-03-24 02:34:00,
2013-03-23 20:35:00,27.4,21.8,30.11,ENE,70,3.0,5.0,79,0.00,,,0.01,VWS V14.01,2013-03-24 02:35:00,
2013-03-23 20:39:00,27.3,22.0,30.11,East,86,4.0,4.0,80,0.00,,,0.01,VWS V14.01,2013-03-24 02:39:00,
2013-03-23 20:40:00,27.3,22.0,30.11,East,89,3.0,5.0,80,0.00,,,0.01,VWS V14.01,2013-03-24 02:40:00,
2013-03-23 20:44:00,27.4,22.0,30.11,East,90,2.0,4.0,80,0.00,,,0.01,VWS V14.01,2013-03-24 02:44:00,
2013-03-23 20:45:00,27.4,22.0,30.11,East,87,2.0,4.0,80,0.00,,,0.01,VWS V14.01,2013-03-24 02:45:00,
2013-03-23 20:49:00,27.3,22.0,30.11,East,84,3.0,5.0,80,0.00,,,0.01,VWS V14.01,2013-03-24 02:49:00,
2013-03-23 20:50:00,27.3,22.0,30.11,East,94,4.0,5.0,80,0.00,,,0.01,VWS V14.01,2013-03-24 02:50:00,
2013-03-23 20:54:00,27.2,22.1,30.11,East,83,5.0,5.0,81,0.00,,,0.01,VWS V14.01,2013-03-24 02:54:00,
2013-03-23 20:55:00,27.1,22.1,30.11,ENE,70,5.0,5.0,81,0.00,,,0.01,VWS V14.01,2013-03-24 02:55:00,
2013-03-23 20:59:00,27.1,22.4,30.11,East,89,5.0,6.0,82,0.00,,,0.01,VWS V14.01,2013-03-24 02:59:00,
2013-03-23 21:00:00,27.0,22.2,30.11,ENE,72,3.0,6.0,82,0.00,,,0.01,VWS V14.01,2013-03-24 03:00:00,
2013-03-23 21:04:00,26.9,22.4,30.12,ENE,75,5.0,6.0,83,0.00,,,0.01,VWS V14.01,2013-03-24 03:04:00,
2013-03-23 21:05:00,26.9,22.4,30.12,ENE,71,4.0,6.0,83,0.00,,,0.01,VWS V14.01,2013-03-24 03:05:00,
2013-03-23 21:09:00,26.9,22.4,30.12,East,83,3.0,5.0,83,0.00,,,0.01,VWS V14.01,2013-03-24 03:09:00,
2013-03-23 21:10:00,26.9,22.4,30.12,East,84,3.0,5.0,83,0.00,,,0.01,VWS V14.01,2013-03-24 03:10:00,
2013-03-23 21:14:00,26.7,22.5,30.12,East,90,1.0,3.0,84,0.00,,,0.01,VWS V14.01,2013-03-24 03:14:00,
2013-03-23 21:15:00,26.7,22.5,30.12,East,91,1.0,3.0,84,0.00,,,0.01,VWS V14.01,2013-03-24 03:15:00,
2013-03-23 21:19:00,26.4,22.5,30.12,East,93,2.0,2.0,85,0.00,,,0.01,VWS V14.01,2013-03-24 03:19:00,
2013-03-23 21:20:00,26.4,22.5,30.12,East,94,2.0,2.0,85,0.00,,,0.01,VWS V14.01,2013-03-24 03:20:00,
2013-03-23 21:24:00,26.2,22.6,30.12,East,87,2.0,2.0,86,0.00,,,0.01,VWS V14.01,2013-03-24 03:24:00,
2013-03-23 21:25:00,26.2,22.6,30.12,East,87,1.0,2.0,86,0.00,,,0.01,VWS V14.01,2013-03-24 03:25:00,
2013-03-23 21:29:00,26.2,22.6,30.12,East,94,1.0,2.0,86,0.00,,,0.01,VWS V14.01,2013-03-24 03:29:00,
2013-03-23 21:30:00,26.2,22.6,30.12,East,95,1.0,2.0,86,0.00,,,0.01,VWS V14.01,2013-03-24 03:30:00,
2013-03-23 21:34:00,25.6,21.5,30.12,WSW,254,2.0,3.0,84,0.00,,,0.01,VWS V14.01,2013-03-24 03:34:00,
2013-03-23 21:35:00,25.5,21.4,30.12,WSW,249,2.0,3.0,84,0.00,,,0.01,VWS V14.01,2013-03-24 03:35:00,
2013-03-23 21:39:00,25.2,21.9,30.12,West,263,2.0,2.0,87,0.00,,,0.01,VWS V14.01,2013-03-24 03:39:00,
2013-03-23 21:40:00,25.2,21.9,30.12,West,261,2.0,2.0,87,0.00,,,0.01,VWS V14.01,2013-03-24 03:40:00,
2013-03-23 21:44:00,25.2,22.1,30.13,West,259,1.0,2.0,88,0.00,,,0.01,VWS V14.01,2013-03-24 03:44:00,
2013-03-23 21:45:00,25.2,22.1,30.13,West,259,1.0,2.0,88,0.00,,,0.01,VWS V14.01,2013-03-24 03:45:00,
2013-03-23 21:49:00,25.1,21.8,30.13,West,259,0.0,1.0,87,0.00,,,0.01,VWS V14.01,2013-03-24 03:49:00,
2013-03-23 21:50:00,25.1,21.8,30.13,WSW,258,0.0,1.0,87,0.00,,,0.01,VWS V14.01,2013-03-24 03:50:00,
2013-03-23 21:54:00,25.1,21.8,30.13,WSW,257,1.0,1.0,87,0.00,,,0.01,VWS V14.01,2013-03-24 03:54:00,
2013-03-23 21:55:00,25.1,21.8,30.13,WSW,257,1.0,1.0,87,0.00,,,0.01,VWS V14.01,2013-03-24 03:55:00,
2013-03-23 21:59:00,25.1,21.5,30.13,West,264,0.0,2.0,86,0.00,,,0.01,VWS V14.01,2013-03-24 03:59:00,
2013-03-23 22:00:00,25.1,21.5,30.13,West,264,0.0,0.0,86,0.00,,,0.01,VWS V14.01,2013-03-24 04:00:00,
2013-03-23 22:05:00,24.2,20.4,30.13,WNW,284,0.0,0.0,85,0.00,,,0.01,VWS V14.01,2013-03-24 04:05:00,
2013-03-23 22:10:00,23.8,20.2,30.13,WNW,282,0.0,0.0,86,0.00,,,0.01,VWS V14.01,2013-03-24 04:10:00,
2013-03-23 22:15:00,23.8,20.5,30.13,WNW,283,0.0,0.0,87,0.00,,,0.01,VWS V14.01,2013-03-24 04:15:00,
2013-03-23 22:20:00,23.9,20.6,30.13,WNW,283,0.0,0.0,87,0.00,,,0.01,VWS V14.01,2013-03-24 04:20:00,
2013-03-23 22:25:00,23.7,20.1,30.13,WNW,282,0.0,0.0,86,0.00,,,0.01,VWS V14.01,2013-03-24 04:25:00,
2013-03-23 22:30:00,23.4,19.8,30.13,West,266,1.0,2.0,86,0.00,,,0.01,VWS V14.01,2013-03-24 04:30:00,
2013-03-23 22:35:00,22.8,19.0,30.13,West,259,2.0,2.0,85,0.00,,,0.01,VWS V14.01,2013-03-24 04:35:00,
2013-03-23 22:40:00,22.5,18.7,30.13,WSW,257,1.0,2.0,85,0.00,,,0.01,VWS V14.01,2013-03-24 04:40:00,
2013-03-23 22:41:00,22.4,18.6,30.13,West,259,2.0,2.0,85,0.00,,,0.01,VWS V14.01,2013-03-24 04:41:00,
2013-03-23 22:45:00,22.0,17.9,30.13,West,260,1.0,2.0,84,0.00,,,0.01,VWS V14.01,2013-03-24 04:45:00,
2013-03-23 22:46:00,21.9,17.8,30.13,West,273,2.0,2.0,84,0.00,,,0.01,VWS V14.01,2013-03-24 04:46:00,
2013-03-23 22:50:00,21.7,17.9,30.13,West,269,2.0,3.0,85,0.00,,,0.01,VWS V14.01,2013-03-24 04:50:00,
2013-03-23 22:51:00,21.6,17.8,30.13,West,266,2.0,2.0,85,0.00,,,0.01,VWS V14.01,2013-03-24 04:51:00,
2013-03-23 22:55:00,21.4,17.6,30.13,West,262,1.0,2.0,85,0.00,,,0.01,VWS V14.01,2013-03-24 04:55:00,
2013-03-23 22:56:00,21.3,17.5,30.13,West,264,2.0,2.0,85,0.00,,,0.01,VWS V14.01,2013-03-24 04:56:00,
2013-03-23 23:00:00,21.1,17.3,30.13,West,264,2.0,2.0,85,0.00,,,0.01,VWS V14.01,2013-03-24 05:00:00,
2013-03-23 23:01:00,21.1,17.6,30.13,West,274,2.0,2.0,86,0.00,,,0.01,VWS V14.01,2013-03-24 05:01:00,
2013-03-23 23:05:00,21.3,17.8,30.13,WNW,285,1.0,2.0,86,0.00,,,0.01,VWS V14.01,2013-03-24 05:05:00,
2013-03-23 23:06:00,21.3,17.8,30.13,West,280,2.0,2.0,86,0.00,,,0.01,VWS V14.01,2013-03-24 05:06:00,
2013-03-23 23:10:00,21.4,17.6,30.13,West,273,1.0,3.0,85,0.00,,,0.01,VWS V14.01,2013-03-24 05:10:00,
2013-03-23 23:11:00,21.5,17.7,30.13,West,275,1.0,2.0,85,0.00,,,0.01,VWS V14.01,2013-03-24 05:11:00,
2013-03-23 23:15:00,21.6,17.5,30.13,West,280,1.0,2.0,84,0.00,,,0.01,VWS V14.01,2013-03-24 05:15:00,
2013-03-23 23:17:00,21.6,17.5,30.13,West,280,1.0,1.0,84,0.00,,,0.01,VWS V14.01,2013-03-24 05:17:00,
2013-03-23 23:20:00,21.4,17.3,30.13,West,280,0.0,1.0,84,0.00,,,0.01,VWS V14.01,2013-03-24 05:20:00,
2013-03-23 23:22:00,21.2,17.1,30.13,West,280,0.0,0.0,84,0.00,,,0.01,VWS V14.01,2013-03-24 05:22:00,
2013-03-23 23:25:00,21.0,16.9,30.14,West,280,1.0,1.0,84,0.00,,,0.01,VWS V14.01,2013-03-24 05:25:00,
2013-03-23 23:27:00,20.9,16.8,30.14,West,280,0.0,1.0,84,0.00,,,0.01,VWS V14.01,2013-03-24 05:27:00,
2013-03-23 23:30:00,20.8,16.7,30.14,WSW,251,1.0,1.0,84,0.00,,,0.01,VWS V14.01,2013-03-24 05:30:00,
2013-03-23 23:32:00,20.8,17.0,30.13,WSW,252,0.0,1.0,85,0.00,,,0.01,VWS V14.01,2013-03-24 05:32:00,
2013-03-23 23:35:00,20.7,16.6,30.13,WSW,251,0.0,1.0,84,0.00,,,0.01,VWS V14.01,2013-03-24 05:35:00,
2013-03-23 23:37:00,20.6,16.5,30.14,WSW,252,0.0,0.0,84,0.00,,,0.01,VWS V14.01,2013-03-24 05:37:00,
2013-03-23 23:40:00,20.3,16.2,30.14,WSW,252,0.0,0.0,84,0.00,,,0.01,VWS V14.01,2013-03-24 05:40:00,
2013-03-23 23:42:00,20.1,16.0,30.14,WSW,252,0.0,0.0,84,0.00,,,0.01,VWS V14.01,2013-03-24 05:42:00,
2013-03-23 23:45:00,19.8,16.0,30.14,WSW,252,0.0,0.0,85,0.00,,,0.01,VWS V14.01,2013-03-24 05:45:00,
2013-03-23 23:47:00,19.8,16.3,30.14,WSW,256,2.0,2.0,86,0.00,,,0.01,VWS V14.01,2013-03-24 05:47:00,
2013-03-23 23:50:00,19.7,16.2,30.14,WSW,252,1.0,2.0,86,0.00,,,0.01,VWS V14.01,2013-03-24 05:50:00,
2013-03-23 23:52:00,19.8,16.6,30.14,WSW,252,0.0,2.0,87,0.00,,,0.01,VWS V14.01,2013-03-24 05:52:00,
2013-03-23 23:55:00,20.2,17.0,30.14,WSW,252,0.0,2.0,87,0.00,,,0.01,VWS V14.01,2013-03-24 05:55:00,
2013-03-23 23:57:00,20.2,16.7,30.14,WSW,252,0.0,0.0,86,0.00,,,0.01,VWS V14.01,2013-03-24 05:57:00,